Terminal Aerodrome Forecast
Issued by NWS Topeka, KS

Home | Current Version | Previous Version | Text Only | Print | Product List | Glossary Off
Versions: 1 2 3 4 5 6 7 8 9 10 11 12 13 14

000
FTUS43 KTOP 211734
TAFTOP
TAF
KTOP 211734Z 2118/2218 20015G23KT P6SM FEW250
     FM220100 18010KT P6SM FEW250
     FM220300 18006KT P6SM SCT250 WS010/20035KT
     FM221100 18006KT P6SM SCT250
     FM221700 18010G19KT P6SM FEW250=

USA.gov is the U.S. government's official web portal to all federal, state and local government web resources and services.